sensor_id;sensor_type;location;lat;lon;timestamp;P1;durP1;ratioP1;P2;durP2;ratioP2
44816;SDS011;30529;53.570;9.964;2023-02-18T00:00:21;16.73;;;4.17;;
44816;SDS011;30529;53.570;9.964;2023-02-18T00:02:48;18.87;;;3.40;;
44816;SDS011;30529;53.570;9.964;2023-02-18T00:05:14;23.67;;;3.80;;
44816;SDS011;30529;53.570;9.964;2023-02-18T00:07:40;17.93;;;3.30;;
44816;SDS011;30529;53.570;9.964;2023-02-18T00:10:13;23.93;;;5.10;;
44816;SDS011;30529;53.570;9.964;2023-02-18T00:12:40;18.60;;;3.80;;
44816;SDS011;30529;53.570;9.964;2023-02-18T00:15:06;17.57;;;3.30;;
44816;SDS011;30529;53.570;9.964;2023-02-18T00:17:33;21.43;;;4.10;;
44816;SDS011;30529;53.570;9.964;2023-02-18T00:20:00;22.33;;;4.57;;
44816;SDS011;30529;53.570;9.964;2023-02-18T00:22:26;15.20;;;3.57;;
44816;SDS011;30529;53.570;9.964;2023-02-18T00:24:52;21.60;;;3.97;;
44816;SDS011;30529;53.570;9.964;2023-02-18T00:27:18;22.80;;;4.87;;
44816;SDS011;30529;53.570;9.964;2023-02-18T00:29:44;21.67;;;4.40;;
44816;SDS011;30529;53.570;9.964;2023-02-18T00:32:10;19.27;;;3.63;;
44816;SDS011;30529;53.570;9.964;2023-02-18T00:34:36;27.40;;;4.17;;
44816;SDS011;30529;53.570;9.964;2023-02-18T00:37:02;20.50;;;3.83;;
44816;SDS011;30529;53.570;9.964;2023-02-18T00:39:28;19.97;;;3.80;;
44816;SDS011;30529;53.570;9.964;2023-02-18T00:41:54;16.50;;;3.67;;
44816;SDS011;30529;53.570;9.964;2023-02-18T00:44:21;16.70;;;3.27;;
44816;SDS011;30529;53.570;9.964;2023-02-18T00:46:47;18.03;;;4.20;;
44816;SDS011;30529;53.570;9.964;2023-02-18T00:49:15;20.93;;;3.73;;
44816;SDS011;30529;53.570;9.964;2023-02-18T00:51:41;13.20;;;3.80;;
44816;SDS011;30529;53.570;9.964;2023-02-18T00:54:08;23.57;;;3.43;;
44816;SDS011;30529;53.570;9.964;2023-02-18T00:56:34;18.60;;;3.63;;
44816;SDS011;30529;53.570;9.964;2023-02-18T00:59:00;19.30;;;3.93;;
44816;SDS011;30529;53.570;9.964;2023-02-18T01:01:26;20.50;;;3.50;;
44816;SDS011;30529;53.570;9.964;2023-02-18T01:03:53;18.70;;;3.67;;
44816;SDS011;30529;53.570;9.964;2023-02-18T01:06:19;22.67;;;4.23;;
44816;SDS011;30529;53.570;9.964;2023-02-18T01:08:46;17.23;;;3.23;;
44816;SDS011;30529;53.570;9.964;2023-02-18T01:11:13;19.17;;;3.17;;
44816;SDS011;30529;53.570;9.964;2023-02-18T01:13:39;15.87;;;3.73;;
44816;SDS011;30529;53.570;9.964;2023-02-18T01:16:05;13.77;;;3.40;;
44816;SDS011;30529;53.570;9.964;2023-02-18T01:18:31;18.63;;;3.37;;
44816;SDS011;30529;53.570;9.964;2023-02-18T01:20:58;15.30;;;3.73;;
44816;SDS011;30529;53.570;9.964;2023-02-18T01:23:24;16.73;;;3.93;;
44816;SDS011;30529;53.570;9.964;2023-02-18T01:25:50;16.13;;;3.93;;
44816;SDS011;30529;53.570;9.964;2023-02-18T01:28:17;17.83;;;3.93;;
44816;SDS011;30529;53.570;9.964;2023-02-18T01:30:43;18.27;;;3.77;;
44816;SDS011;30529;53.570;9.964;2023-02-18T01:33:09;14.80;;;3.70;;
44816;SDS011;30529;53.570;9.964;2023-02-18T01:35:39;21.13;;;3.60;;
44816;SDS011;30529;53.570;9.964;2023-02-18T01:38:05;18.40;;;3.67;;
44816;SDS011;30529;53.570;9.964;2023-02-18T01:40:31;16.73;;;3.70;;
44816;SDS011;30529;53.570;9.964;2023-02-18T01:42:58;20.63;;;3.50;;
44816;SDS011;30529;53.570;9.964;2023-02-18T01:48:00;23.60;;;3.97;;
44816;SDS011;30529;53.570;9.964;2023-02-18T01:50:30;16.07;;;3.47;;
44816;SDS011;30529;53.570;9.964;2023-02-18T01:52:58;14.13;;;3.13;;
44816;SDS011;30529;53.570;9.964;2023-02-18T01:55:25;12.03;;;3.13;;
44816;SDS011;30529;53.570;9.964;2023-02-18T01:57:51;17.43;;;3.43;;
44816;SDS011;30529;53.570;9.964;2023-02-18T02:00:18;15.30;;;4.00;;
44816;SDS011;30529;53.570;9.964;2023-02-18T02:02:46;20.03;;;4.90;;
44816;SDS011;30529;53.570;9.964;2023-02-18T02:05:19;21.90;;;3.33;;
44816;SDS011;30529;53.570;9.964;2023-02-18T02:07:46;15.20;;;4.27;;
44816;SDS011;30529;53.570;9.964;2023-02-18T02:10:15;17.77;;;4.03;;
44816;SDS011;30529;53.570;9.964;2023-02-18T02:15:40;13.40;;;2.90;;
44816;SDS011;30529;53.570;9.964;2023-02-18T02:18:33;23.47;;;3.50;;
44816;SDS011;30529;53.570;9.964;2023-02-18T02:24:11;13.30;;;3.17;;
44816;SDS011;30529;53.570;9.964;2023-02-18T02:29:47;16.57;;;4.20;;
44816;SDS011;30529;53.570;9.964;2023-02-18T02:32:31;16.57;;;3.17;;
44816;SDS011;30529;53.570;9.964;2023-02-18T02:35:09;17.53;;;2.60;;
44816;SDS011;30529;53.570;9.964;2023-02-18T02:38:05;15.03;;;2.60;;
44816;SDS011;30529;53.570;9.964;2023-02-18T02:46:30;18.47;;;2.50;;
44816;SDS011;30529;53.570;9.964;2023-02-18T02:49:12;11.67;;;2.57;;
44816;SDS011;30529;53.570;9.964;2023-02-18T02:54:36;12.77;;;2.60;;
44816;SDS011;30529;53.570;9.964;2023-02-18T02:57:05;9.67;;;2.23;;
44816;SDS011;30529;53.570;9.964;2023-02-18T02:59:43;16.07;;;2.67;;
44816;SDS011;30529;53.570;9.964;2023-02-18T03:02:26;15.57;;;2.50;;
44816;SDS011;30529;53.570;9.964;2023-02-18T03:05:09;19.17;;;3.13;;
44816;SDS011;30529;53.570;9.964;2023-02-18T03:08:24;17.30;;;4.17;;
44816;SDS011;30529;53.570;9.964;2023-02-18T03:10:56;18.03;;;3.37;;
44816;SDS011;30529;53.570;9.964;2023-02-18T03:16:22;10.93;;;3.00;;
44816;SDS011;30529;53.570;9.964;2023-02-18T03:18:57;15.07;;;3.83;;
44816;SDS011;30529;53.570;9.964;2023-02-18T03:21:31;13.87;;;2.87;;
44816;SDS011;30529;53.570;9.964;2023-02-18T03:24:05;14.90;;;3.30;;
44816;SDS011;30529;53.570;9.964;2023-02-18T03:26:45;18.00;;;3.50;;
44816;SDS011;30529;53.570;9.964;2023-02-18T03:29:15;15.67;;;3.23;;
44816;SDS011;30529;53.570;9.964;2023-02-18T03:31:42;17.10;;;3.60;;
44816;SDS011;30529;53.570;9.964;2023-02-18T03:34:15;11.63;;;2.23;;
44816;SDS011;30529;53.570;9.964;2023-02-18T03:36:44;13.03;;;2.63;;
44816;SDS011;30529;53.570;9.964;2023-02-18T03:39:13;18.93;;;3.30;;
44816;SDS011;30529;53.570;9.964;2023-02-18T03:41:40;15.20;;;2.83;;
44816;SDS011;30529;53.570;9.964;2023-02-18T03:44:07;17.43;;;3.93;;
44816;SDS011;30529;53.570;9.964;2023-02-18T03:46:34;10.97;;;2.57;;
44816;SDS011;30529;53.570;9.964;2023-02-18T03:49:02;18.53;;;3.13;;
44816;SDS011;30529;53.570;9.964;2023-02-18T03:51:29;12.33;;;2.17;;
44816;SDS011;30529;53.570;9.964;2023-02-18T03:53:55;12.20;;;2.70;;
44816;SDS011;30529;53.570;9.964;2023-02-18T03:56:21;10.53;;;2.47;;
44816;SDS011;30529;53.570;9.964;2023-02-18T03:58:47;10.10;;;3.07;;
44816;SDS011;30529;53.570;9.964;2023-02-18T04:01:13;20.17;;;3.80;;
44816;SDS011;30529;53.570;9.964;2023-02-18T04:03:40;14.00;;;2.80;;
44816;SDS011;30529;53.570;9.964;2023-02-18T04:06:06;12.57;;;4.10;;
44816;SDS011;30529;53.570;9.964;2023-02-18T04:08:32;14.43;;;3.70;;
44816;SDS011;30529;53.570;9.964;2023-02-18T04:10:58;12.57;;;3.40;;
44816;SDS011;30529;53.570;9.964;2023-02-18T04:13:24;11.53;;;3.17;;
44816;SDS011;30529;53.570;9.964;2023-02-18T04:15:50;11.87;;;2.83;;
44816;SDS011;30529;53.570;9.964;2023-02-18T04:18:16;9.13;;;2.33;;
44816;SDS011;30529;53.570;9.964;2023-02-18T04:20:42;10.57;;;2.70;;
44816;SDS011;30529;53.570;9.964;2023-02-18T04:23:10;13.17;;;2.40;;
44816;SDS011;30529;53.570;9.964;2023-02-18T04:25:37;8.47;;;2.43;;
44816;SDS011;30529;53.570;9.964;2023-02-18T04:28:03;14.60;;;2.77;;
44816;SDS011;30529;53.570;9.964;2023-02-18T04:30:29;11.47;;;2.30;;
44816;SDS011;30529;53.570;9.964;2023-02-18T04:32:55;11.00;;;2.10;;
44816;SDS011;30529;53.570;9.964;2023-02-18T04:35:21;15.27;;;2.90;;
44816;SDS011;30529;53.570;9.964;2023-02-18T04:37:47;10.70;;;2.87;;
44816;SDS011;30529;53.570;9.964;2023-02-18T04:40:14;9.00;;;2.20;;
44816;SDS011;30529;53.570;9.964;2023-02-18T04:42:40;12.07;;;3.23;;
44816;SDS011;30529;53.570;9.964;2023-02-18T04:45:06;13.90;;;2.90;;
44816;SDS011;30529;53.570;9.964;2023-02-18T04:47:33;8.67;;;2.83;;
44816;SDS011;30529;53.570;9.964;2023-02-18T04:49:59;7.97;;;1.80;;
44816;SDS011;30529;53.570;9.964;2023-02-18T04:52:25;9.40;;;2.03;;
44816;SDS011;30529;53.570;9.964;2023-02-18T04:54:51;9.80;;;2.17;;
44816;SDS011;30529;53.570;9.964;2023-02-18T04:57:17;11.93;;;2.67;;
44816;SDS011;30529;53.570;9.964;2023-02-18T04:59:43;12.23;;;2.47;;
44816;SDS011;30529;53.570;9.964;2023-02-18T05:02:09;10.17;;;2.40;;
44816;SDS011;30529;53.570;9.964;2023-02-18T05:04:35;15.20;;;2.47;;
44816;SDS011;30529;53.570;9.964;2023-02-18T05:07:03;8.23;;;1.90;;
44816;SDS011;30529;53.570;9.964;2023-02-18T05:09:29;9.63;;;2.27;;
44816;SDS011;30529;53.570;9.964;2023-02-18T05:11:55;7.67;;;1.80;;
44816;SDS011;30529;53.570;9.964;2023-02-18T05:14:21;11.83;;;2.63;;
44816;SDS011;30529;53.570;9.964;2023-02-18T05:16:47;10.77;;;2.77;;
44816;SDS011;30529;53.570;9.964;2023-02-18T05:19:13;12.00;;;2.90;;
44816;SDS011;30529;53.570;9.964;2023-02-18T05:21:40;10.97;;;1.80;;
44816;SDS011;30529;53.570;9.964;2023-02-18T05:24:06;7.70;;;2.40;;
44816;SDS011;30529;53.570;9.964;2023-02-18T05:26:33;8.20;;;1.97;;
44816;SDS011;30529;53.570;9.964;2023-02-18T05:28:59;9.47;;;2.17;;
44816;SDS011;30529;53.570;9.964;2023-02-18T05:31:25;10.03;;;2.27;;
44816;SDS011;30529;53.570;9.964;2023-02-18T05:33:51;12.27;;;2.37;;
44816;SDS011;30529;53.570;9.964;2023-02-18T05:36:17;9.83;;;2.20;;
44816;SDS011;30529;53.570;9.964;2023-02-18T05:38:43;10.97;;;3.10;;
44816;SDS011;30529;53.570;9.964;2023-02-18T05:41:09;5.67;;;2.40;;
44816;SDS011;30529;53.570;9.964;2023-02-18T05:43:35;10.93;;;2.83;;
44816;SDS011;30529;53.570;9.964;2023-02-18T05:46:21;14.80;;;3.20;;
44816;SDS011;30529;53.570;9.964;2023-02-18T05:48:47;8.47;;;1.60;;
44816;SDS011;30529;53.570;9.964;2023-02-18T05:51:13;12.10;;;2.93;;
44816;SDS011;30529;53.570;9.964;2023-02-18T05:53:40;11.00;;;2.20;;
44816;SDS011;30529;53.570;9.964;2023-02-18T05:56:06;10.60;;;2.40;;
44816;SDS011;30529;53.570;9.964;2023-02-18T05:58:32;8.93;;;2.20;;
44816;SDS011;30529;53.570;9.964;2023-02-18T06:00:58;10.43;;;2.23;;
44816;SDS011;30529;53.570;9.964;2023-02-18T06:03:24;12.37;;;2.63;;
44816;SDS011;30529;53.570;9.964;2023-02-18T06:05:50;10.47;;;2.73;;
44816;SDS011;30529;53.570;9.964;2023-02-18T06:08:17;5.87;;;1.80;;
44816;SDS011;30529;53.570;9.964;2023-02-18T06:10:45;8.33;;;2.43;;
44816;SDS011;30529;53.570;9.964;2023-02-18T06:13:11;6.27;;;1.93;;
44816;SDS011;30529;53.570;9.964;2023-02-18T06:15:37;8.97;;;1.93;;
44816;SDS011;30529;53.570;9.964;2023-02-18T06:18:04;9.37;;;2.30;;
44816;SDS011;30529;53.570;9.964;2023-02-18T06:20:31;17.17;;;2.37;;
44816;SDS011;30529;53.570;9.964;2023-02-18T06:22:57;6.30;;;1.70;;
44816;SDS011;30529;53.570;9.964;2023-02-18T06:25:23;9.23;;;1.90;;
44816;SDS011;30529;53.570;9.964;2023-02-18T06:27:49;10.47;;;2.43;;
44816;SDS011;30529;53.570;9.964;2023-02-18T06:30:15;10.00;;;2.30;;
44816;SDS011;30529;53.570;9.964;2023-02-18T06:32:41;8.30;;;1.50;;
44816;SDS011;30529;53.570;9.964;2023-02-18T06:35:07;8.73;;;1.70;;
44816;SDS011;30529;53.570;9.964;2023-02-18T06:37:33;7.37;;;1.77;;
44816;SDS011;30529;53.570;9.964;2023-02-18T06:39:59;7.40;;;2.27;;
44816;SDS011;30529;53.570;9.964;2023-02-18T06:42:25;5.77;;;1.63;;
44816;SDS011;30529;53.570;9.964;2023-02-18T06:44:51;8.47;;;2.67;;
44816;SDS011;30529;53.570;9.964;2023-02-18T06:47:17;8.87;;;2.13;;
44816;SDS011;30529;53.570;9.964;2023-02-18T06:49:45;6.40;;;1.67;;
44816;SDS011;30529;53.570;9.964;2023-02-18T06:52:11;7.33;;;2.00;;
44816;SDS011;30529;53.570;9.964;2023-02-18T06:54:37;11.03;;;2.80;;
44816;SDS011;30529;53.570;9.964;2023-02-18T06:57:03;8.60;;;2.60;;
44816;SDS011;30529;53.570;9.964;2023-02-18T06:59:29;8.57;;;2.57;;
44816;SDS011;30529;53.570;9.964;2023-02-18T07:01:55;9.00;;;2.27;;
44816;SDS011;30529;53.570;9.964;2023-02-18T07:04:21;8.43;;;1.80;;
44816;SDS011;30529;53.570;9.964;2023-02-18T07:06:47;8.83;;;2.00;;
44816;SDS011;30529;53.570;9.964;2023-02-18T07:09:16;7.90;;;2.50;;
44816;SDS011;30529;53.570;9.964;2023-02-18T07:11:42;5.20;;;1.70;;
44816;SDS011;30529;53.570;9.964;2023-02-18T07:14:08;7.60;;;2.33;;
44816;SDS011;30529;53.570;9.964;2023-02-18T07:16:34;5.43;;;1.57;;
44816;SDS011;30529;53.570;9.964;2023-02-18T07:18:59;11.90;;;2.67;;
44816;SDS011;30529;53.570;9.964;2023-02-18T07:21:25;11.20;;;2.20;;
44816;SDS011;30529;53.570;9.964;2023-02-18T07:23:51;10.30;;;3.57;;
44816;SDS011;30529;53.570;9.964;2023-02-18T07:26:17;8.93;;;2.00;;
44816;SDS011;30529;53.570;9.964;2023-02-18T07:28:43;15.73;;;2.50;;
44816;SDS011;30529;53.570;9.964;2023-02-18T07:31:09;6.27;;;2.03;;
44816;SDS011;30529;53.570;9.964;2023-02-18T07:33:35;7.93;;;2.13;;
44816;SDS011;30529;53.570;9.964;2023-02-18T07:36:02;10.33;;;1.93;;
44816;SDS011;30529;53.570;9.964;2023-02-18T07:38:28;7.30;;;1.87;;
44816;SDS011;30529;53.570;9.964;2023-02-18T07:40:55;6.50;;;1.90;;
44816;SDS011;30529;53.570;9.964;2023-02-18T07:43:22;11.03;;;2.43;;
44816;SDS011;30529;53.570;9.964;2023-02-18T07:45:48;9.83;;;2.40;;
44816;SDS011;30529;53.570;9.964;2023-02-18T07:48:14;8.47;;;2.40;;
44816;SDS011;30529;53.570;9.964;2023-02-18T07:50:41;7.10;;;2.40;;
44816;SDS011;30529;53.570;9.964;2023-02-18T07:53:09;9.80;;;2.40;;
44816;SDS011;30529;53.570;9.964;2023-02-18T07:55:35;10.90;;;2.27;;
44816;SDS011;30529;53.570;9.964;2023-02-18T07:58:18;8.73;;;2.17;;
44816;SDS011;30529;53.570;9.964;2023-02-18T08:00:48;6.47;;;2.60;;
44816;SDS011;30529;53.570;9.964;2023-02-18T08:03:15;13.33;;;2.67;;
44816;SDS011;30529;53.570;9.964;2023-02-18T08:05:42;10.37;;;2.80;;
44816;SDS011;30529;53.570;9.964;2023-02-18T08:08:13;7.30;;;2.93;;
44816;SDS011;30529;53.570;9.964;2023-02-18T08:10:41;7.83;;;2.13;;
44816;SDS011;30529;53.570;9.964;2023-02-18T08:13:07;7.50;;;1.87;;
44816;SDS011;30529;53.570;9.964;2023-02-18T08:15:34;8.53;;;2.53;;
44816;SDS011;30529;53.570;9.964;2023-02-18T08:18:00;8.90;;;2.13;;
44816;SDS011;30529;53.570;9.964;2023-02-18T08:20:26;9.03;;;2.40;;
44816;SDS011;30529;53.570;9.964;2023-02-18T08:22:53;9.03;;;2.30;;
44816;SDS011;30529;53.570;9.964;2023-02-18T08:25:19;7.30;;;2.43;;
44816;SDS011;30529;53.570;9.964;2023-02-18T08:27:44;8.60;;;2.57;;
44816;SDS011;30529;53.570;9.964;2023-02-18T08:30:10;5.73;;;2.00;;
44816;SDS011;30529;53.570;9.964;2023-02-18T08:32:37;9.83;;;2.13;;
44816;SDS011;30529;53.570;9.964;2023-02-18T08:35:03;9.90;;;2.77;;
44816;SDS011;30529;53.570;9.964;2023-02-18T08:37:32;9.57;;;2.50;;
44816;SDS011;30529;53.570;9.964;2023-02-18T08:39:58;9.07;;;2.23;;
44816;SDS011;30529;53.570;9.964;2023-02-18T08:42:26;10.73;;;2.27;;
44816;SDS011;30529;53.570;9.964;2023-02-18T08:44:52;16.93;;;2.50;;
44816;SDS011;30529;53.570;9.964;2023-02-18T08:47:18;12.00;;;2.93;;
44816;SDS011;30529;53.570;9.964;2023-02-18T08:49:44;8.53;;;2.30;;
44816;SDS011;30529;53.570;9.964;2023-02-18T08:52:10;7.27;;;2.40;;
44816;SDS011;30529;53.570;9.964;2023-02-18T08:54:36;8.60;;;2.97;;
44816;SDS011;30529;53.570;9.964;2023-02-18T08:57:01;13.37;;;3.50;;
44816;SDS011;30529;53.570;9.964;2023-02-18T08:59:27;13.30;;;3.47;;
44816;SDS011;30529;53.570;9.964;2023-02-18T09:01:53;10.73;;;2.80;;
44816;SDS011;30529;53.570;9.964;2023-02-18T09:04:19;10.97;;;2.77;;
44816;SDS011;30529;53.570;9.964;2023-02-18T09:06:46;12.63;;;3.00;;
44816;SDS011;30529;53.570;9.964;2023-02-18T09:09:12;13.03;;;3.23;;
44816;SDS011;30529;53.570;9.964;2023-02-18T09:11:38;12.20;;;4.10;;
44816;SDS011;30529;53.570;9.964;2023-02-18T09:14:04;12.97;;;3.43;;
44816;SDS011;30529;53.570;9.964;2023-02-18T09:16:30;9.00;;;2.90;;
44816;SDS011;30529;53.570;9.964;2023-02-18T09:18:56;11.97;;;3.60;;
44816;SDS011;30529;53.570;9.964;2023-02-18T09:21:23;12.13;;;3.37;;
44816;SDS011;30529;53.570;9.964;2023-02-18T09:23:49;9.40;;;3.90;;
44816;SDS011;30529;53.570;9.964;2023-02-18T09:26:16;9.00;;;3.60;;
44816;SDS011;30529;53.570;9.964;2023-02-18T09:28:45;14.03;;;4.03;;
44816;SDS011;30529;53.570;9.964;2023-02-18T09:31:14;10.77;;;4.20;;
44816;SDS011;30529;53.570;9.964;2023-02-18T09:33:51;12.07;;;4.13;;
44816;SDS011;30529;53.570;9.964;2023-02-18T09:36:18;13.50;;;3.87;;
44816;SDS011;30529;53.570;9.964;2023-02-18T09:38:47;9.07;;;4.87;;
44816;SDS011;30529;53.570;9.964;2023-02-18T09:41:35;14.10;;;4.53;;
44816;SDS011;30529;53.570;9.964;2023-02-18T09:44:24;15.50;;;5.20;;
44816;SDS011;30529;53.570;9.964;2023-02-18T09:47:06;8.60;;;4.40;;
44816;SDS011;30529;53.570;9.964;2023-02-18T09:49:36;8.70;;;4.80;;
44816;SDS011;30529;53.570;9.964;2023-02-18T09:52:15;11.37;;;4.97;;
44816;SDS011;30529;53.570;9.964;2023-02-18T09:57:52;11.33;;;5.73;;
44816;SDS011;30529;53.570;9.964;2023-02-18T10:00:27;14.53;;;5.57;;
44816;SDS011;30529;53.570;9.964;2023-02-18T10:03:01;9.37;;;4.40;;
44816;SDS011;30529;53.570;9.964;2023-02-18T10:05:32;9.93;;;5.03;;
44816;SDS011;30529;53.570;9.964;2023-02-18T10:08:04;10.73;;;5.10;;
44816;SDS011;30529;53.570;9.964;2023-02-18T10:10:42;7.77;;;4.43;;
44816;SDS011;30529;53.570;9.964;2023-02-18T10:13:15;8.43;;;5.13;;
44816;SDS011;30529;53.570;9.964;2023-02-18T10:15:46;8.73;;;5.03;;
44816;SDS011;30529;53.570;9.964;2023-02-18T10:18:19;10.17;;;5.20;;
44816;SDS011;30529;53.570;9.964;2023-02-18T10:20:57;6.73;;;4.50;;
44816;SDS011;30529;53.570;9.964;2023-02-18T10:23:29;9.23;;;5.13;;
44816;SDS011;30529;53.570;9.964;2023-02-18T10:25:58;8.47;;;4.87;;
44816;SDS011;30529;53.570;9.964;2023-02-18T10:28:27;10.23;;;4.90;;
44816;SDS011;30529;53.570;9.964;2023-02-18T10:30:58;9.00;;;4.50;;
44816;SDS011;30529;53.570;9.964;2023-02-18T10:36:01;9.43;;;4.90;;
44816;SDS011;30529;53.570;9.964;2023-02-18T10:41:46;7.77;;;4.63;;
44816;SDS011;30529;53.570;9.964;2023-02-18T10:44:36;9.13;;;4.97;;
44816;SDS011;30529;53.570;9.964;2023-02-18T10:47:29;6.20;;;4.03;;
44816;SDS011;30529;53.570;9.964;2023-02-18T10:50:27;7.93;;;4.67;;
44816;SDS011;30529;53.570;9.964;2023-02-18T10:52:59;9.90;;;4.90;;
44816;SDS011;30529;53.570;9.964;2023-02-18T10:55:34;6.90;;;5.63;;
44816;SDS011;30529;53.570;9.964;2023-02-18T11:01:20;11.90;;;6.00;;
44816;SDS011;30529;53.570;9.964;2023-02-18T11:03:47;9.60;;;5.63;;
44816;SDS011;30529;53.570;9.964;2023-02-18T11:06:15;10.03;;;5.70;;
44816;SDS011;30529;53.570;9.964;2023-02-18T11:09:05;9.17;;;5.40;;
44816;SDS011;30529;53.570;9.964;2023-02-18T11:11:38;7.07;;;5.43;;
44816;SDS011;30529;53.570;9.964;2023-02-18T11:14:05;7.53;;;4.57;;
44816;SDS011;30529;53.570;9.964;2023-02-18T11:16:40;7.40;;;4.20;;
44816;SDS011;30529;53.570;9.964;2023-02-18T11:19:30;6.43;;;3.77;;
44816;SDS011;30529;53.570;9.964;2023-02-18T11:22:06;5.13;;;3.57;;
44816;SDS011;30529;53.570;9.964;2023-02-18T11:24:45;4.10;;;3.30;;
44816;SDS011;30529;53.570;9.964;2023-02-18T11:27:20;4.80;;;3.63;;
44816;SDS011;30529;53.570;9.964;2023-02-18T11:29:50;5.67;;;3.40;;
44816;SDS011;30529;53.570;9.964;2023-02-18T11:32:18;5.70;;;3.03;;
44816;SDS011;30529;53.570;9.964;2023-02-18T11:34:44;3.83;;;2.77;;
44816;SDS011;30529;53.570;9.964;2023-02-18T11:37:11;2.87;;;2.43;;
44816;SDS011;30529;53.570;9.964;2023-02-18T11:39:47;5.27;;;2.50;;
44816;SDS011;30529;53.570;9.964;2023-02-18T11:42:17;2.90;;;2.23;;
44816;SDS011;30529;53.570;9.964;2023-02-18T11:44:49;1.73;;;1.43;;
44816;SDS011;30529;53.570;9.964;2023-02-18T11:47:22;1.60;;;1.20;;
44816;SDS011;30529;53.570;9.964;2023-02-18T11:50:00;3.13;;;1.60;;
44816;SDS011;30529;53.570;9.964;2023-02-18T11:52:27;1.27;;;1.10;;
44816;SDS011;30529;53.570;9.964;2023-02-18T11:55:17;1.27;;;0.97;;
44816;SDS011;30529;53.570;9.964;2023-02-18T11:57:57;1.23;;;0.90;;
44816;SDS011;30529;53.570;9.964;2023-02-18T12:00:40;0.80;;;0.70;;
44816;SDS011;30529;53.570;9.964;2023-02-18T12:03:14;1.53;;;0.87;;
44816;SDS011;30529;53.570;9.964;2023-02-18T12:05:41;2.00;;;0.80;;
44816;SDS011;30529;53.570;9.964;2023-02-18T12:08:13;1.17;;;0.70;;
44816;SDS011;30529;53.570;9.964;2023-02-18T12:10:55;1.13;;;0.90;;
44816;SDS011;30529;53.570;9.964;2023-02-18T12:24:35;1.77;;;0.93;;
44816;SDS011;30529;53.570;9.964;2023-02-18T12:27:29;2.67;;;0.80;;
44816;SDS011;30529;53.570;9.964;2023-02-18T12:30:41;2.07;;;1.10;;
44816;SDS011;30529;53.570;9.964;2023-02-18T12:42:02;5.43;;;1.40;;
44816;SDS011;30529;53.570;9.964;2023-02-18T12:44:52;6.33;;;1.70;;
44816;SDS011;30529;53.570;9.964;2023-02-18T12:55:25;6.43;;;1.53;;
44816;SDS011;30529;53.570;9.964;2023-02-18T13:07:12;5.67;;;1.73;;
44816;SDS011;30529;53.570;9.964;2023-02-18T13:12:37;8.70;;;2.40;;
44816;SDS011;30529;53.570;9.964;2023-02-18T13:15:12;13.20;;;2.50;;
44816;SDS011;30529;53.570;9.964;2023-02-18T13:17:46;11.60;;;2.27;;
44816;SDS011;30529;53.570;9.964;2023-02-18T13:20:19;10.13;;;2.50;;
44816;SDS011;30529;53.570;9.964;2023-02-18T13:22:50;14.00;;;2.90;;
44816;SDS011;30529;53.570;9.964;2023-02-18T13:25:17;12.73;;;3.70;;
44816;SDS011;30529;53.570;9.964;2023-02-18T13:27:47;9.80;;;2.83;;
44816;SDS011;30529;53.570;9.964;2023-02-18T13:30:37;11.80;;;2.90;;
44816;SDS011;30529;53.570;9.964;2023-02-18T13:36:09;11.90;;;2.60;;
44816;SDS011;30529;53.570;9.964;2023-02-18T13:41:13;19.10;;;3.13;;
44816;SDS011;30529;53.570;9.964;2023-02-18T13:43:39;13.17;;;2.90;;
44816;SDS011;30529;53.570;9.964;2023-02-18T13:46:15;15.30;;;3.40;;
44816;SDS011;30529;53.570;9.964;2023-02-18T13:51:40;11.70;;;2.37;;
44816;SDS011;30529;53.570;9.964;2023-02-18T13:56:39;9.70;;;2.70;;
44816;SDS011;30529;53.570;9.964;2023-02-18T13:59:32;10.53;;;2.50;;
44816;SDS011;30529;53.570;9.964;2023-02-18T14:05:20;11.93;;;2.97;;
44816;SDS011;30529;53.570;9.964;2023-02-18T14:07:48;11.27;;;3.10;;
44816;SDS011;30529;53.570;9.964;2023-02-18T14:10:35;15.50;;;3.17;;
44816;SDS011;30529;53.570;9.964;2023-02-18T14:13:17;10.77;;;2.73;;
44816;SDS011;30529;53.570;9.964;2023-02-18T14:16:07;8.00;;;2.77;;
44816;SDS011;30529;53.570;9.964;2023-02-18T14:26:22;3.00;;;1.60;;
44816;SDS011;30529;53.570;9.964;2023-02-18T14:28:56;5.90;;;1.73;;
44816;SDS011;30529;53.570;9.964;2023-02-18T14:31:28;2.40;;;1.23;;
44816;SDS011;30529;53.570;9.964;2023-02-18T14:37:09;3.13;;;1.30;;
44816;SDS011;30529;53.570;9.964;2023-02-18T14:40:07;1.17;;;1.07;;
44816;SDS011;30529;53.570;9.964;2023-02-18T14:51:24;1.97;;;1.47;;
44816;SDS011;30529;53.570;9.964;2023-02-18T14:53:56;1.97;;;1.73;;
44816;SDS011;30529;53.570;9.964;2023-02-18T14:56:31;1.53;;;1.40;;
44816;SDS011;30529;53.570;9.964;2023-02-18T14:59:02;1.63;;;1.53;;
44816;SDS011;30529;53.570;9.964;2023-02-18T15:01:31;1.80;;;1.57;;
44816;SDS011;30529;53.570;9.964;2023-02-18T15:03:59;2.13;;;1.77;;
44816;SDS011;30529;53.570;9.964;2023-02-18T15:06:30;2.40;;;1.63;;
44816;SDS011;30529;53.570;9.964;2023-02-18T15:08:58;3.03;;;2.00;;
44816;SDS011;30529;53.570;9.964;2023-02-18T15:11:30;2.47;;;2.00;;
44816;SDS011;30529;53.570;9.964;2023-02-18T15:14:54;4.33;;;2.00;;
44816;SDS011;30529;53.570;9.964;2023-02-18T15:16:56;2.70;;;1.80;;
44816;SDS011;30529;53.570;9.964;2023-02-18T15:19:26;1.97;;;1.40;;
44816;SDS011;30529;53.570;9.964;2023-02-18T15:22:01;2.03;;;1.60;;
44816;SDS011;30529;53.570;9.964;2023-02-18T15:24:34;1.60;;;1.00;;
44816;SDS011;30529;53.570;9.964;2023-02-18T15:27:14;1.00;;;0.90;;
44816;SDS011;30529;53.570;9.964;2023-02-18T15:29:43;5.43;;;1.07;;
44816;SDS011;30529;53.570;9.964;2023-02-18T15:32:15;1.17;;;0.90;;
44816;SDS011;30529;53.570;9.964;2023-02-18T15:34:44;2.87;;;0.97;;
44816;SDS011;30529;53.570;9.964;2023-02-18T15:37:11;1.30;;;0.70;;
44816;SDS011;30529;53.570;9.964;2023-02-18T15:39:39;1.10;;;0.90;;
44816;SDS011;30529;53.570;9.964;2023-02-18T15:45:35;1.33;;;0.83;;
44816;SDS011;30529;53.570;9.964;2023-02-18T15:47:45;1.00;;;0.90;;
44816;SDS011;30529;53.570;9.964;2023-02-18T15:50:24;1.33;;;0.80;;
44816;SDS011;30529;53.570;9.964;2023-02-18T15:52:52;1.13;;;0.90;;
44816;SDS011;30529;53.570;9.964;2023-02-18T15:55:31;1.20;;;0.80;;
44816;SDS011;30529;53.570;9.964;2023-02-18T15:58:00;1.30;;;0.60;;
44816;SDS011;30529;53.570;9.964;2023-02-18T16:00:30;2.10;;;0.90;;
44816;SDS011;30529;53.570;9.964;2023-02-18T16:03:02;0.67;;;0.60;;
44816;SDS011;30529;53.570;9.964;2023-02-18T16:05:36;1.97;;;0.70;;
44816;SDS011;30529;53.570;9.964;2023-02-18T16:08:12;0.73;;;0.70;;
44816;SDS011;30529;53.570;9.964;2023-02-18T16:10:52;1.00;;;0.80;;
44816;SDS011;30529;53.570;9.964;2023-02-18T16:13:24;0.97;;;0.83;;
44816;SDS011;30529;53.570;9.964;2023-02-18T16:15:51;1.92;;;1.10;;
44816;SDS011;30529;53.570;9.964;2023-02-18T16:20:53;1.30;;;1.10;;
44816;SDS011;30529;53.570;9.964;2023-02-18T16:23:30;2.60;;;1.57;;
44816;SDS011;30529;53.570;9.964;2023-02-18T16:29:11;3.57;;;1.60;;
44816;SDS011;30529;53.570;9.964;2023-02-18T16:31:39;1.67;;;1.57;;
44816;SDS011;30529;53.570;9.964;2023-02-18T16:34:05;3.93;;;2.03;;
44816;SDS011;30529;53.570;9.964;2023-02-18T16:36:31;3.27;;;2.33;;
44816;SDS011;30529;53.570;9.964;2023-02-18T16:38:57;3.43;;;2.10;;
44816;SDS011;30529;53.570;9.964;2023-02-18T16:41:26;4.30;;;2.20;;
44816;SDS011;30529;53.570;9.964;2023-02-18T16:43:52;2.13;;;1.60;;
44816;SDS011;30529;53.570;9.964;2023-02-18T16:46:20;2.10;;;1.67;;
44816;SDS011;30529;53.570;9.964;2023-02-18T16:48:53;3.53;;;1.80;;
44816;SDS011;30529;53.570;9.964;2023-02-18T16:51:21;3.43;;;1.93;;
44816;SDS011;30529;53.570;9.964;2023-02-18T16:53:50;2.13;;;1.80;;
44816;SDS011;30529;53.570;9.964;2023-02-18T16:56:20;3.30;;;1.77;;